Data for 05/24/2018

Time Sea-Level Adjusted Pressure Absolute Pressure Temperature Relative Humidity Dew Point   
(mb) (inHg) (mb) (inHg) (C) (F) (%) (C) (F)
00:05 1016 30 846 24.98 9.7 49.5 82 6.8 44.3
00:10 1016 30 846 24.98 9.5 49.1 82 6.7 44
00:15 1016 30 846 24.98 9.4 48.8 83 6.6 43.8
00:20 1016 30 846 24.98 9.1 48.5 84 6.5 43.8
00:25 1017 30.03 846 24.98 9 48.2 83 6.4 43.5
00:30 1017 30.03 846 24.98 9 48.3 84 6.5 43.7
00:35 1017 30.03 846 24.98 9 48.1 85 6.5 43.7
00:40 1017 30.03 846 24.98 9.2 48.5 83 6.4 43.5
00:45 1017 30.03 846 24.98 9.3 48.8 82 6.5 43.7
00:50 1017 30.03 846 24.98 9.2 48.6 83 6.4 43.6
00:55 1017 30.03 846 24.98 9.2 48.5 83 6.5 43.7
01:00 1017 30.03 846 24.98 9.1 48.4 84 6.5 43.7
01:05 1017 30.03 846 24.98 9.1 48.3 83 6.4 43.5
01:10 1017 30.03 846 24.98 9.1 48.3 84 6.5 43.6
01:15 1017 30.03 846 24.98 9 48.2 84 6.4 43.5
01:20 1017 30.03 846 24.98 8.7 47.7 86 6.5 43.6
01:25 1017 30.03 846 24.98 8.8 47.8 84 6.3 43.3
01:30 1017 30.03 846 24.98 9.2 48.6 82 6.3 43.4
01:35 1017 30.03 846 24.98 9.2 48.5 83 6.4 43.6
01:40 1017 30.03 846 24.98 9 48.1 84 6.4 43.5
01:45 1017 30.03 846 24.98 8.9 48 84 6.3 43.4
01:50 1017 30.03 846 24.98 8.8 47.9 84 6.3 43.4
01:55 1017 30.03 846 24.98 8.7 47.6 85 6.3 43.3
02:00 1017 30.03 846 24.98 8.6 47.4 85 6.2 43.2
02:05 1017 30.03 846 24.98 8.6 47.4 85 6.2 43.1
02:10 1017 30.03 846 24.98 8.5 47.3 85 6.1 43
02:15 1017 30.03 846 24.98 8.4 47.1 85 6 42.8
02:20 1017 30.03 846 24.98 8.3 46.9 85 6 42.7
02:25 1017 30.03 846 24.98 8.2 46.7 85 5.9 42.6
02:30 1017 30.03 846 24.98 8.1 46.6 85 5.8 42.4
02:35 1017 30.03 846 24.98 8.4 47 84 5.8 42.4
02:40 1017 30.03 846 24.98 8.6 47.5 83 5.8 42.5
02:45 1017 30.03 846 24.98 8.7 47.7 81 5.7 42.3
02:50 1017 30.03 846 24.98 8.8 47.9 81 5.8 42.4
02:55 1017 30.03 846 24.98 8.8 47.8 81 5.7 42.3
03:00 1017 30.03 846 24.98 8.7 47.6 82 5.8 42.4
03:05 1017 30.03 846 24.98 8.6 47.5 82 5.7 42.3
03:10 1017 30.03 846 24.98 8.5 47.4 83 5.8 42.5
03:15 1017 30.03 846 24.98 8.4 47.1 83 5.7 42.3
03:20 1017 30.03 846 24.98 8.3 46.9 84 5.7 42.2
03:25 1017 30.03 846 24.98 8.1 46.6 84 5.6 42.1
03:30 1017 30.03 846 24.98 8.1 46.6 84 5.6 42
03:35 1017 30.03 846 24.98 8.2 46.8 83 5.6 42
03:40 1017 30.03 846 24.98 8.3 47 83 5.6 42
03:45 1017 30.03 846 24.98 8.5 47.2 82 5.6 42
03:50 1017 30.03 846 24.98 8.4 47.2 82 5.6 42
03:55 1017 30.03 846 24.98 8.4 47.2 82 5.5 42
04:00 1017 30.03 846 24.98 8.3 46.9 83 5.6 42
04:05 1017 30.03 846 24.98 7.9 46.3 84 5.4 41.8
04:10 1017 30.03 846 24.98 7.8 46.1 84 5.3 41.5
04:15 1017 30.03 846 24.98 8.2 46.8 82 5.3 41.5
04:20 1017 30.03 846 24.98 8.4 47.2 81 5.4 41.7
04:25 1017 30.03 846 24.98 8.2 46.8 82 5.4 41.8
04:30 1017 30.03 846 24.98 8.3 46.9 82 5.4 41.7
04:35 1017 30.03 846 24.98 8.5 47.2 81 5.4 41.8
04:40 1017 30.03 846 24.98 8.5 47.3 81 5.4 41.7
04:45 1017 30.03 846 24.98 8.4 47.2 81 5.5 41.8
04:50 1017 30.03 846 24.98 8.2 46.7 83 5.5 41.8
04:55 1017 30.03 846 24.98 8.2 46.8 82 5.4 41.6
05:00 1017 30.03 846 24.98 8.4 47.1 82 5.5 41.8
05:05 1017 30.03 846 24.98 8.5 47.2 82 5.5 41.9
05:10 1017 30.03 846 24.98 8.5 47.3 81 5.5 41.9
05:15 1017 30.03 846 24.98 8.5 47.4 81 5.4 41.7
05:20 1017 30.03 846 24.98 8.6 47.5 80 5.4 41.8
05:25 1017 30.03 846 24.98 8.3 46.9 82 5.4 41.7
05:30 1017 30.03 847 25.01 8.1 46.7 83 5.4 41.7
05:35 1017 30.03 847 25.01 8.3 47 82 5.4 41.8
05:40 1017 30.03 847 25.01 8.3 47 82 5.5 41.9
05:45 1017 30.03 847 25.01 8.5 47.2 82 5.5 41.9
05:50 1017 30.03 847 25.01 8.6 47.6 80 5.4 41.8
05:55 1018 30.06 847 25.01 8.9 47.9 80 5.6 42.2
06:00 1018 30.06 847 25.01 8.8 47.9 81 5.7 42.3
06:05 1018 30.06 847 25.01 8.9 48 81 5.7 42.3
06:10 1017 30.03 847 25.01 9 48.3 79 5.7 42.2
06:15 1017 30.03 847 25.01 9.1 48.4 79 5.6 42.2
06:20 1017 30.03 847 25.01 9.1 48.3 79 5.6 42.2
06:25 1018 30.06 847 25.01 9.1 48.3 79 5.7 42.3
06:30 1018 30.06 847 25.01 9.1 48.3 79 5.7 42.2
06:35 1018 30.06 847 25.01 9.2 48.6 79 5.8 42.5
06:40 1018 30.06 847 25.01 9.4 48.9 78 5.8 42.5
06:45 1018 30.06 847 25.01 9.7 49.4 78 6 42.7
06:50 1018 30.06 847 25.01 9.9 49.7 76 5.8 42.5
06:55 1018 30.06 847 25.01 10.1 50.3 75 5.9 42.6
07:00 1018 30.06 847 25.01 10.4 50.6 75 6.2 43.2
07:05 1018 30.06 847 25.01 10.4 50.6 76 6.3 43.4
07:10 1018 30.06 847 25.01 10.4 50.7 77 6.5 43.7
07:15 1018 30.06 847 25.01 10.4 50.7 76 6.3 43.3
07:20 1018 30.06 847 25.01 10.4 50.7 77 6.5 43.8
07:25 1018 30.06 847 25.01 10.5 50.8 76 6.4 43.6
07:30 1018 30.06 847 25.01 10.7 51.2 75 6.4 43.6
07:35 1018 30.06 847 25.01 10.8 51.4 74 6.4 43.6
07:40 1018 30.06 847 25.01 10.9 51.6 75 6.7 44.1
07:45 1018 30.06 847 25.01 10.9 51.7 76 6.9 44.4
07:50 1018 30.06 847 25.01 11.5 52.8 74 7 44.6
07:55 1018 30.06 847 25.01 12.4 54.3 69 7 44.6
08:00 1018 30.06 847 25.01 13.3 56 68 7.6 45.6
08:05 1018 30.06 847 25.01 13.8 56.9 64 7.1 44.8
08:10 1018 30.06 847 25.01 13.5 56.3 63 6.8 44.2
08:15 1018 30.06 847 25.01 13.4 56.1 65 7 44.5
08:20 1018 30.06 847 25.01 13.5 56.3 66 7.3 45.1
08:25 1018 30.06 847 25.01 14.6 58.2 60 6.9 44.4
08:30 1018 30.06 848 25.04 14.6 58.3 61 7.3 45.1
08:35 1018 30.06 848 25.04 14.5 58.1 62 7.3 45.2
08:40 1018 30.06 847 25.01 14.3 57.8 62 7.3 45.1
08:45 1018 30.06 847 25.01 14.9 58.9 60 7.2 45
08:50 1018 30.06 847 25.01 15.1 59.1 62 7.9 46.2
08:55 1018 30.06 848 25.04 15.3 59.6 59 7.5 45.5
09:00 1018 30.06 848 25.04 15.5 60 57 7.2 45
09:05 1018 30.06 848 25.04 15.8 60.5 56 7.2 44.9
09:10 1018 30.06 848 25.04 15.7 60.3 58 7.6 45.6
09:15 1018 30.06 848 25.04 15.9 60.6 57 7.5 45.5
09:20 1018 30.06 848 25.04 16 60.7 56 7.4 45.2
09:25 1018 30.06 848 25.04 16.1 60.9 56 7.5 45.5
09:30 1018 30.06 848 25.04 16.3 61.3 56 7.4 45.4
09:35 1018 30.06 848 25.04 16.3 61.3 55 7.4 45.3
09:40 1018 30.06 848 25.04 16.2 61.2 57 7.7 45.9
09:45 1019 30.09 848 25.04 16.3 61.4 57 7.8 46
09:50 1019 30.09 848 25.04 16.6 61.9 55 7.6 45.7
09:55 1019 30.09 848 25.04 16.9 62.4 54 7.6 45.6
10:00 1019 30.09 848 25.04 16.9 62.5 54 7.7 45.9
10:05 1019 30.09 848 25.04 16.8 62.2 56 8.1 46.7
10:10 1019 30.09 848 25.04 16.5 61.7 56 7.8 46
10:15 1018 30.06 848 25.04 16.6 61.9 56 7.8 46.1
10:20 1018 30.06 848 25.04 16.9 62.4 56 8.1 46.6
10:25 1018 30.06 848 25.04 17.3 63.1 53 7.7 45.9
10:30 1018 30.06 848 25.04 18.1 64.6 50 7.5 45.5
10:35 1018 30.06 848 25.04 19.1 66.3 48 8 46.4
10:40 1018 30.06 848 25.04 19.2 66.5 49 8.4 47.2
10:45 1018 30.06 848 25.04 18.4 65.2 51 8.2 46.7
10:50 1018 30.06 848 25.04 18.6 65.5 46 7 44.6
10:55 1018 30.06 848 25.04 19.1 66.3 45 7 44.5
11:00 1019 30.09 848 25.04 18.9 66 45 7 44.5
11:05 1019 30.09 848 25.04 18.8 65.9 46 7 44.6
11:10 1019 30.09 848 25.04 18.5 65.3 47 7.1 44.7
11:15 1019 30.09 848 25.04 18.5 65.2 48 7.3 45.1
11:20 1019 30.09 848 25.04 18.5 65.2 47 7.1 44.7
11:25 1019 30.09 848 25.04 18.6 65.5 47 7.1 44.7
11:30 1019 30.09 848 25.04 18.7 65.7 47 7.3 45.1
11:35 1019 30.09 848 25.04 18.6 65.4 45 6.7 44.1
11:40 1019 30.09 848 25.04 18.5 65.3 46 6.9 44.4
11:45 1019 30.09 848 25.04 18.9 66.1 45 7 44.6
11:50 1019 30.09 848 25.04 19.4 66.9 43 6.6 43.9
11:55 1019 30.09 848 25.04 19.6 67.3 43 6.7 44
12:00 1019 30.09 848 25.04 20.4 68.7 39 6.2 43.2
12:05 1019 30.09 848 25.04 20.2 68.4 39 6.1 43
12:10 1019 30.09 848 25.04 19.9 67.9 41 6.3 43.4
12:15 1019 30.09 848 25.04 20.2 68.4 40 6.3 43.4
12:20 1019 30.09 848 25.04 20.3 68.6 38 5.5 42
12:25 1019 30.09 848 25.04 20.7 69.2 39 6.2 43.2
12:30 1019 30.09 848 25.04 21.2 70.1 37 6.1 43
12:35 1019 30.09 848 25.04 20.9 69.6 38 6.2 43.2
12:40 1019 30.09 848 25.04 20.7 69.3 38 6 42.8
12:45 1019 30.09 848 25.04 20.5 69 39 6.2 43.2
12:50 1019 30.09 848 25.04 20.4 68.7 36 5.2 41.3
12:55 1019 30.09 848 25.04 20.6 69 34 4.3 39.8
13:00 1019 30.09 848 25.04 20.6 69 34 4.2 39.5
13:05 1019 30.09 848 25.04 20.5 68.9 33 3.9 39
13:10 1019 30.09 848 25.04 20.2 68.4 36 4.8 40.6
13:15 1019 30.09 848 25.04 20.1 68.2 38 5.4 41.6
13:20 1019 30.09 848 25.04 20 68 38 5.5 41.9
13:25 1019 30.09 848 25.04 20.2 68.3 37 5.3 41.6
13:30 1019 30.09 848 25.04 20.4 68.7 37 5.4 41.7
13:35 1019 30.09 848 25.04 20.3 68.6 36 5.1 41.1
13:40 1019 30.09 848 25.04 20.6 69 38 5.8 42.4
13:45 1019 30.09 848 25.04 20.5 68.8 37 5.3 41.5
13:50 1019 30.09 848 25.04 20.8 69.4 36 5.3 41.6
13:55 1019 30.09 848 25.04 21.1 69.9 33 4.4 39.9
14:00 1019 30.09 848 25.04 20.8 69.5 34 4.7 40.5
14:05 1018 30.06 848 25.04 21.2 70.2 33 4.6 40.3
14:10 1019 30.09 848 25.04 21.2 70.1 35 5.5 41.9
14:15 1018 30.06 848 25.04 21.1 70 33 4.2 39.6
14:20 1018 30.06 848 25.04 21 69.8 33 4.3 39.7
14:25 1018 30.06 848 25.04 21.5 70.6 31 3.8 38.9
14:30 1018 30.06 848 25.04 21.5 70.7 31 3.8 38.8
14:35 1018 30.06 848 25.04 21.9 71.3 31 4.3 39.7
14:40 1018 30.06 848 25.04 22.9 73.1 30 4.6 40.3
14:45 1018 30.06 847 25.01 22.5 72.4 32 5.2 41.4
14:50 1018 30.06 848 25.04 21.8 71.2 35 5.7 42.3
14:55 1018 30.06 848 25.04 21.3 70.4 37 6.2 43.2
15:00 1018 30.06 848 25.04 21.3 70.4 35 5.4 41.6
15:05 1018 30.06 848 25.04 21.6 70.9 33 5 41.1
15:10 1018 30.06 848 25.04 22.2 71.9 33 5.2 41.3
15:15 1018 30.06 847 25.01 22.6 72.6 31 4.8 40.6
15:20 1018 30.06 847 25.01 23.1 73.6 31 5.4 41.7
15:25 1018 30.06 847 25.01 23.2 73.7 31 5.4 41.8
15:30 1018 30.06 847 25.01 22.9 73.1 34 6.2 43.2
15:35 1018 30.06 847 25.01 22.3 72.2 33 5.3 41.6
15:40 1018 30.06 847 25.01 22.3 72.1 34 5.9 42.6
15:45 1018 30.06 847 25.01 22.5 72.5 35 6.3 43.3
15:50 1018 30.06 847 25.01 22.4 72.3 35 6.6 43.8
15:55 1018 30.06 847 25.01 22 71.6 35 6.2 43.2
16:00 1018 30.06 847 25.01 21.8 71.2 33 5 40.9
16:05 1018 30.06 847 25.01 21.7 71 34 5.1 41.2
16:10 1018 30.06 847 25.01 21.2 70.2 35 5.4 41.7
16:15 1018 30.06 847 25.01 21.4 70.5 34 5 41.1
16:20 1018 30.06 847 25.01 21.4 70.5 35 5.4 41.7
16:25 1018 30.06 847 25.01 21.8 71.3 33 5.2 41.3
16:30 1018 30.06 847 25.01 22.4 72.3 34 5.9 42.6
16:35 1018 30.06 847 25.01 22.2 71.9 33 5.3 41.6
16:40 1018 30.06 847 25.01 22.3 72.1 32 4.9 40.8
16:45 1018 30.06 847 25.01 22.6 72.6 32 5.4 41.8
16:50 1018 30.06 847 25.01 22.3 72.2 33 5.5 41.8
16:55 1018 30.06 847 25.01 22.4 72.2 31 4.8 40.7
17:00 1018 30.06 847 25.01 23.1 73.5 31 5.1 41.2
17:05 1018 30.06 847 25.01 22.8 73 34 6.2 43.2
17:10 1018 30.06 847 25.01 22.1 71.7 33 5.2 41.4
17:15 1018 30.06 847 25.01 22.2 72 30 3.9 39
17:20 1018 30.06 847 25.01 22.9 73.2 30 4.8 40.6
17:25 1018 30.06 847 25.01 23.3 74 29 4.7 40.4
17:30 1018 30.06 847 25.01 22.7 72.8 30 4.2 39.6
17:35 1018 30.06 847 25.01 22 71.6 30 3.8 38.9
17:40 1018 30.06 847 25.01 22.5 72.4 31 4.7 40.5
17:45 1018 30.06 847 25.01 23 73.5 29 4.4 40
17:50 1018 30.06 847 25.01 22.4 72.3 31 4.6 40.3
17:55 1018 30.06 847 25.01 22.3 72.1 32 4.8 40.7
18:00 1018 30.06 847 25.01 22.3 72.1 32 4.9 40.7
18:05 1018 30.06 847 25.01 22.3 72.1 32 5 41.1
18:10 1018 30.06 847 25.01 22.4 72.4 32 5 40.9
18:15 1018 30.06 847 25.01 22.8 73.1 29 4.1 39.4
18:20 1018 30.06 847 25.01 23 73.4 30 4.5 40.1
18:25 1018 30.06 847 25.01 23.2 73.7 28 4 39.1
18:30 1018 30.06 847 25.01 23.3 73.9 28 4 39.1
18:35 1018 30.06 847 25.01 23.1 73.5 28 3.7 38.7
18:40 1018 30.06 847 25.01 22.7 72.9 28 3.7 38.7
18:45 1018 30.06 847 25.01 22.3 72.1 29 3.7 38.6
18:50 1018 30.06 847 25.01 22.1 71.8 30 4 39.2
18:55 1018 30.06 847 25.01 21.9 71.4 31 4 39.2
19:00 1018 30.06 847 25.01 21.9 71.3 31 4.2 39.5
19:05 1018 30.06 847 25.01 22 71.6 31 4.5 40.1
19:10 1018 30.06 847 25.01 21.6 70.9 33 4.7 40.5
19:15 1018 30.06 847 25.01 21.4 70.5 34 5 41
19:20 1018 30.06 847 25.01 21.1 69.9 37 6 42.7
19:25 1018 30.06 847 25.01 20.9 69.6 37 5.8 42.5
19:30 1018 30.06 847 25.01 20.8 69.4 37 5.8 42.5
19:35 1018 30.06 847 25.01 20.8 69.4 37 5.6 42.1
19:40 1018 30.06 847 25.01 20.7 69.2 37 5.6 42.1
19:45 1018 30.06 847 25.01 20.5 69 39 6.2 43.1
19:50 1018 30.06 847 25.01 20.4 68.8 41 6.8 44.3
19:55 1018 30.06 848 25.04 20 68 40 6.1 43
20:00 1018 30.06 848 25.04 20 68 39 5.7 42.3
20:05 1018 30.06 848 25.04 20 68 40 6 42.8
20:10 1018 30.06 848 25.04 19.9 67.8 40 6.1 43
20:15 1018 30.06 848 25.04 19.8 67.6 41 6.2 43.1
20:20 1018 30.06 848 25.04 19.7 67.4 42 6.6 43.8
20:25 1018 30.06 848 25.04 19.6 67.2 42 6.5 43.7
20:30 1019 30.09 848 25.04 19.4 67 43 6.5 43.7
20:35 1019 30.09 848 25.04 19.4 66.9 43 6.5 43.7
20:40 1019 30.09 848 25.04 19.4 66.9 43 6.6 43.8
20:45 1019 30.09 848 25.04 19.4 66.9 43 6.8 44.2
20:50 1019 30.09 848 25.04 19.3 66.7 44 7 44.7
20:55 1019 30.09 848 25.04 19.1 66.3 46 7.3 45.1
21:00 1019 30.09 848 25.04 18.9 65.9 46 7.2 45
21:05 1019 30.09 848 25.04 18.8 65.8 47 7.2 45
21:10 1019 30.09 848 25.04 18.8 65.8 48 7.5 45.5
21:15 1019 30.09 848 25.04 18.6 65.4 49 7.7 45.9
21:20 1019 30.09 848 25.04 18.4 65.2 49 7.7 45.8
21:25 1019 30.09 848 25.04 18.4 65.1 49 7.6 45.7
21:30 1019 30.09 848 25.04 18.4 65.1 49 7.5 45.5
21:35 1019 30.09 848 25.04 18.5 65.3 47 7.2 45
21:40 1019 30.09 848 25.04 18.6 65.4 48 7.6 45.6
21:45 1019 30.09 848 25.04 18.5 65.3 48 7.3 45.1
21:50 1019 30.09 848 25.04 18.4 65.1 49 7.7 45.9
21:55 1019 30.09 848 25.04 18.1 64.5 49 7.4 45.3
22:00 1019 30.09 848 25.04 18 64.3 48 6.9 44.5
22:05 1019 30.09 848 25.04 17.9 64.3 48 7 44.7
22:10 1019 30.09 849 25.07 17.6 63.8 50 7.1 44.7
22:15 1019 30.09 849 25.07 17.3 63.2 51 7.3 45.2
22:20 1019 30.09 849 25.07 17.1 62.7 52 7.4 45.3
22:25 1019 30.09 849 25.07 16.8 62.3 53 7.3 45.1
22:30 1019 30.09 849 25.07 16.6 62 53 7.2 44.9
22:35 1020 30.12 849 25.07 16.5 61.7 53 7.1 44.8
22:40 1019 30.09 849 25.07 16.4 61.5 52 6.6 43.8
22:45 1019 30.09 849 25.07 16.4 61.4 52 6.6 43.9
22:50 1020 30.12 849 25.07 16.3 61.3 52 6.6 43.8
22:55 1019 30.09 849 25.07 16.2 61.1 52 6.5 43.7
23:00 1019 30.09 849 25.07 16 60.9 52 6.3 43.4
23:05 1019 30.09 849 25.07 16 60.8 53 6.4 43.5
23:10 1019 30.09 849 25.07 15.9 60.5 53 6.3 43.4
23:15 1019 30.09 849 25.07 15.8 60.5 52 6.2 43.2
23:20 1019 30.09 849 25.07 15.8 60.4 54 6.6 43.9
23:25 1020 30.12 849 25.07 15.5 59.9 56 6.9 44.4
23:30 1020 30.12 849 25.07 15.1 59.1 58 7 44.5
23:35 1019 30.09 849 25.07 14.8 58.6 59 6.8 44.3
23:40 1020 30.12 849 25.07 14.6 58.3 59 6.7 44.1
23:45 1020 30.12 849 25.07 14.5 58.1 59 6.7 44
23:50 1020 30.12 849 25.07 14.4 57.9 60 6.8 44.2
23:55 1020 30.12 849 25.07 14.2 57.6 60 6.7 44
24:00 1020 30.12 849 25.07 14.3 57.7 60 6.8 44.2